Aviation Digital Data Service (ADDS)

Output produced by METARs form (0755 UTC 18 February 2019)
found at http://www.aviationweather.gov/metar/data/
 
METAR text: ETHN 180720Z 15003KT 9999 FEW350 05/M05 Q1021 BLU+BLU+
Conditions at: ETHN (NIEDERSTETTEN (G, DE) observed 0720 UTC 18 February 2019
Temperature: 5.0°C (41°F)
Dewpoint: -5.0°C (23°F) [RH = 48%]
Pressure (altimeter): 30.15 inches Hg (1021.0 mb)
Winds: from the SSE (150 degrees) at 3 MPH (3 knots; 1.5 m/s)
Visibility: 6 or more miles (10+ km)
Ceiling: at least 12,000 feet AGL
Clouds: few clouds at 35000 feet AGL
Weather: no significant weather observed at this time

METAR text: ETHN 180620Z 18002KT 9999 FEW350 04/M04 Q1021 BLU+BLU+
Conditions at: ETHN (NIEDERSTETTEN (G, DE) observed 0620 UTC 18 February 2019
Temperature: 4.0°C (39°F)
Dewpoint: -4.0°C (25°F) [RH = 56%]
Pressure (altimeter): 30.15 inches Hg (1021.0 mb)
Winds: from the S (180 degrees) at 2 MPH (2 knots; 1.0 m/s)
Visibility: 6 or more miles (10+ km)
Ceiling: at least 12,000 feet AGL
Clouds: few clouds at 35000 feet AGL
Weather: no significant weather observed at this time

METAR text: ETHN 180520Z VRB02KT 9999 04/M04 Q1021 BLU+BLU+
Conditions at: ETHN (NIEDERSTETTEN (G, DE) observed 0520 UTC 18 February 2019
Temperature: 4.0°C (39°F)
Dewpoint: -4.0°C (25°F) [RH = 56%]
Pressure (altimeter): 30.15 inches Hg (1021.0 mb)
Winds: variable direction winds at 2 MPH (2 knots; 1.0 m/s)
Visibility: 6 or more miles (10+ km)
Ceiling: unknown
Clouds: missing
Weather: no significant weather observed at this time

METAR text: ETHN 180420Z VRB02KT 9999 04/M03 Q1021 BLU+
Conditions at: ETHN (NIEDERSTETTEN (G, DE) observed 0420 UTC 18 February 2019
Temperature: 4.0°C (39°F)
Dewpoint: -3.0°C (27°F) [RH = 60%]
Pressure (altimeter): 30.15 inches Hg (1021.0 mb)
Winds: variable direction winds at 2 MPH (2 knots; 1.0 m/s)
Visibility: 6 or more miles (10+ km)
Ceiling: unknown
Clouds: missing
Weather: no significant weather observed at this time

METAR text: ETHN 180320Z 17005KT 9999 05/M02 Q1021 BLU+
Conditions at: ETHN (NIEDERSTETTEN (G, DE) observed 0320 UTC 18 February 2019
Temperature: 5.0°C (41°F)
Dewpoint: -2.0°C (28°F) [RH = 60%]
Pressure (altimeter): 30.15 inches Hg (1021.0 mb)
Winds: from the S (170 degrees) at 6 MPH (5 knots; 2.6 m/s)
Visibility: 6 or more miles (10+ km)
Ceiling: unknown
Clouds: missing
Weather: no significant weather observed at this time

METAR text: ETHN 180220Z 17005KT 9999 FEW350 05/M02 Q1022 BLU+
Conditions at: ETHN (NIEDERSTETTEN (G, DE) observed 0220 UTC 18 February 2019
Temperature: 5.0°C (41°F)
Dewpoint: -2.0°C (28°F) [RH = 60%]
Pressure (altimeter): 30.18 inches Hg (1022.0 mb)
Winds: from the S (170 degrees) at 6 MPH (5 knots; 2.6 m/s)
Visibility: 6 or more miles (10+ km)
Ceiling: at least 12,000 feet AGL
Clouds: few clouds at 35000 feet AGL
Weather: no significant weather observed at this time

METAR text: ETHN 180120Z 14005KT 9999 FEW350 05/M02 Q1022 BLU+
Conditions at: ETHN (NIEDERSTETTEN (G, DE) observed 0120 UTC 18 February 2019
Temperature: 5.0°C (41°F)
Dewpoint: -2.0°C (28°F) [RH = 60%]
Pressure (altimeter): 30.18 inches Hg (1022.0 mb)
Winds: from the SE (140 degrees) at 6 MPH (5 knots; 2.6 m/s)
Visibility: 6 or more miles (10+ km)
Ceiling: at least 12,000 feet AGL
Clouds: few clouds at 35000 feet AGL
Weather: no significant weather observed at this time

METAR text: ETHN 180020Z 14006KT 9999 FEW350 05/M01 Q1022 BLU+
Conditions at: ETHN (NIEDERSTETTEN (G, DE) observed 0020 UTC 18 February 2019
Temperature: 5.0°C (41°F)
Dewpoint: -1.0°C (30°F) [RH = 65%]
Pressure (altimeter): 30.18 inches Hg (1022.0 mb)
Winds: from the SE (140 degrees) at 7 MPH (6 knots; 3.1 m/s)
Visibility: 6 or more miles (10+ km)
Ceiling: at least 12,000 feet AGL
Clouds: few clouds at 35000 feet AGL
Weather: no significant weather observed at this time

METAR text: ETHN 172320Z 14006KT 9999 FEW350 07/M01 Q1022 BLU+
Conditions at: ETHN (NIEDERSTETTEN (G, DE) observed 2320 UTC 17 February 2019
Temperature: 7.0°C (45°F)
Dewpoint: -1.0°C (30°F) [RH = 57%]
Pressure (altimeter): 30.18 inches Hg (1022.0 mb)
Winds: from the SE (140 degrees) at 7 MPH (6 knots; 3.1 m/s)
Visibility: 6 or more miles (10+ km)
Ceiling: at least 12,000 feet AGL
Clouds: few clouds at 35000 feet AGL
Weather: no significant weather observed at this time

METAR text: ETHN 172220Z 14005KT 9999 FEW340 07/M01 Q1022 BLU+
Conditions at: ETHN (NIEDERSTETTEN (G, DE) observed 2220 UTC 17 February 2019
Temperature: 7.0°C (45°F)
Dewpoint: -1.0°C (30°F) [RH = 57%]
Pressure (altimeter): 30.18 inches Hg (1022.0 mb)
Winds: from the SE (140 degrees) at 6 MPH (5 knots; 2.6 m/s)
Visibility: 6 or more miles (10+ km)
Ceiling: at least 12,000 feet AGL
Clouds: few clouds at 34000 feet AGL
Weather: no significant weather observed at this time

METAR text: ETHN 172120Z 14007KT 9999 FEW360 08/M00 Q1023 BLU+
Conditions at: ETHN (NIEDERSTETTEN (G, DE) observed 2120 UTC 17 February 2019
Temperature: 8.0°C (46°F)
Dewpoint: 0.0°C (32°F) [RH = 57%]
Pressure (altimeter): 30.21 inches Hg (1023.0 mb)
Winds: from the SE (140 degrees) at 8 MPH (7 knots; 3.6 m/s)
Visibility: 6 or more miles (10+ km)
Ceiling: at least 12,000 feet AGL
Clouds: few clouds at 36000 feet AGL
Weather: no significant weather observed at this time

METAR text: ETHN 172020Z 14007KT 9999 SCT370 07/00 Q1023 BLU+
Conditions at: ETHN (NIEDERSTETTEN (G, DE) observed 2020 UTC 17 February 2019
Temperature: 7.0°C (45°F)
Dewpoint: 0.0°C (32°F) [RH = 61%]
Pressure (altimeter): 30.21 inches Hg (1023.0 mb)
Winds: from the SE (140 degrees) at 8 MPH (7 knots; 3.6 m/s)
Visibility: 6 or more miles (10+ km)
Ceiling: at least 12,000 feet AGL
Clouds: scattered clouds at 37000 feet AGL
Weather: no significant weather observed at this time

METAR text: ETHN 171920Z 14007KT 9999 SCT370 07/01 Q1023 BLU+
Conditions at: ETHN (NIEDERSTETTEN (G, DE) observed 1920 UTC 17 February 2019
Temperature: 7.0°C (45°F)
Dewpoint: 1.0°C (34°F) [RH = 66%]
Pressure (altimeter): 30.21 inches Hg (1023.0 mb)
Winds: from the SE (140 degrees) at 8 MPH (7 knots; 3.6 m/s)
Visibility: 6 or more miles (10+ km)
Ceiling: at least 12,000 feet AGL
Clouds: scattered clouds at 37000 feet AGL
Weather: no significant weather observed at this time

METAR text: ETHN 171820Z 14006KT 9999 BKN310 08/02 Q1023 BLU+
Conditions at: ETHN (NIEDERSTETTEN (G, DE) observed 1820 UTC 17 February 2019
Temperature: 8.0°C (46°F)
Dewpoint: 2.0°C (36°F) [RH = 66%]
Pressure (altimeter): 30.21 inches Hg (1023.0 mb)
Winds: from the SE (140 degrees) at 7 MPH (6 knots; 3.1 m/s)
Visibility: 6 or more miles (10+ km)
Ceiling: 31000 feet AGL
Clouds: broken clouds at 31000 feet AGL
Weather: no significant weather observed at this time

METAR text: ETHN 171720Z 13005KT 9999 BKN310 10/00 Q1023 BLU+
Conditions at: ETHN (NIEDERSTETTEN (G, DE) observed 1720 UTC 17 February 2019
Temperature: 10.0°C (50°F)
Dewpoint: 0.0°C (32°F) [RH = 50%]
Pressure (altimeter): 30.21 inches Hg (1023.0 mb)
Winds: from the SE (130 degrees) at 6 MPH (5 knots; 2.6 m/s)
Visibility: 6 or more miles (10+ km)
Ceiling: 31000 feet AGL
Clouds: broken clouds at 31000 feet AGL
Weather: no significant weather observed at this time

METAR text: ETHN 171620Z 16003KT 9999 FEW280 BKN310 12/00 Q1023 BLU+
Conditions at: ETHN (NIEDERSTETTEN (G, DE) observed 1620 UTC 17 February 2019
Temperature: 12.0°C (54°F)
Dewpoint: 0.0°C (32°F) [RH = 44%]
Pressure (altimeter): 30.21 inches Hg (1023.0 mb)
Winds: from the SSE (160 degrees) at 3 MPH (3 knots; 1.5 m/s)
Visibility: 6 or more miles (10+ km)
Ceiling: 31000 feet AGL
Clouds: few clouds at 28000 feet AGL
broken clouds at 31000 feet AGL
Weather: no significant weather observed at this time

METAR text: ETHN 171520Z 19003KT 9999 FEW280 BKN310 14/M00 Q1023 BLU+
Conditions at: ETHN (NIEDERSTETTEN (G, DE) observed 1520 UTC 17 February 2019
Temperature: 14.0°C (57°F)
Dewpoint: 0.0°C (32°F) [RH = 38%]
Pressure (altimeter): 30.21 inches Hg (1023.0 mb)
Winds: from the S (190 degrees) at 3 MPH (3 knots; 1.5 m/s)
Visibility: 6 or more miles (10+ km)
Ceiling: 31000 feet AGL
Clouds: few clouds at 28000 feet AGL
broken clouds at 31000 feet AGL
Weather: no significant weather observed at this time

METAR text: ETHN 171420Z VRB02KT 9999 FEW280 BKN330 16/M00 Q1023 BLU+
Conditions at: ETHN (NIEDERSTETTEN (G, DE) observed 1420 UTC 17 February 2019
Temperature: 16.0°C (61°F)
Dewpoint: 0.0°C (32°F) [RH = 34%]
Pressure (altimeter): 30.21 inches Hg (1023.0 mb)
Winds: variable direction winds at 2 MPH (2 knots; 1.0 m/s)
Visibility: 6 or more miles (10+ km)
Ceiling: 33000 feet AGL
Clouds: few clouds at 28000 feet AGL
broken clouds at 33000 feet AGL
Weather: no significant weather observed at this time

METAR text: ETHN 171320Z 23003KT 9999 FEW280 BKN340 15/02 Q1024 BLU+
Conditions at: ETHN (NIEDERSTETTEN (G, DE) observed 1320 UTC 17 February 2019
Temperature: 15.0°C (59°F)
Dewpoint: 2.0°C (36°F) [RH = 41%]
Pressure (altimeter): 30.24 inches Hg (1024.0 mb)
Winds: from the SW (230 degrees) at 3 MPH (3 knots; 1.5 m/s)
Visibility: 6 or more miles (10+ km)
Ceiling: 34000 feet AGL
Clouds: few clouds at 28000 feet AGL
broken clouds at 34000 feet AGL
Weather: no significant weather observed at this time

METAR text: ETHN 171220Z 34002KT 9999 FEW320 BKN360 13/02 Q1024 BLU+
Conditions at: ETHN (NIEDERSTETTEN (G, DE) observed 1220 UTC 17 February 2019
Temperature: 13.0°C (55°F)
Dewpoint: 2.0°C (36°F) [RH = 47%]
Pressure (altimeter): 30.24 inches Hg (1024.0 mb)
Winds: from the NNW (340 degrees) at 2 MPH (2 knots; 1.0 m/s)
Visibility: 6 or more miles (10+ km)
Ceiling: 36000 feet AGL
Clouds: few clouds at 32000 feet AGL
broken clouds at 36000 feet AGL
Weather: no significant weather observed at this time

METAR text: ETHN 171120Z 32003KT 9999 FEW330 BKN360 13/01 Q1025 BLU+
Conditions at: ETHN (NIEDERSTETTEN (G, DE) observed 1120 UTC 17 February 2019
Temperature: 13.0°C (55°F)
Dewpoint: 1.0°C (34°F) [RH = 44%]
Pressure (altimeter): 30.27 inches Hg (1025.0 mb)
Winds: from the NW (320 degrees) at 3 MPH (3 knots; 1.5 m/s)
Visibility: 6 or more miles (10+ km)
Ceiling: 36000 feet AGL
Clouds: few clouds at 33000 feet AGL
broken clouds at 36000 feet AGL
Weather: no significant weather observed at this time

METAR text: ETHN 171020Z VRB02KT 9999 SCT330 11/01 Q1025 BLU+
Conditions at: ETHN (NIEDERSTETTEN (G, DE) observed 1020 UTC 17 February 2019
Temperature: 11.0°C (52°F)
Dewpoint: 1.0°C (34°F) [RH = 50%]
Pressure (altimeter): 30.27 inches Hg (1025.0 mb)
Winds: variable direction winds at 2 MPH (2 knots; 1.0 m/s)
Visibility: 6 or more miles (10+ km)
Ceiling: at least 12,000 feet AGL
Clouds: scattered clouds at 33000 feet AGL
Weather: no significant weather observed at this time

METAR text: ETHN 170920Z 15004KT 9999 SCT330 09/00 Q1025 BLU+
Conditions at: ETHN (NIEDERSTETTEN (G, DE) observed 0920 UTC 17 February 2019
Temperature: 9.0°C (48°F)
Dewpoint: 0.0°C (32°F) [RH = 53%]
Pressure (altimeter): 30.27 inches Hg (1025.0 mb)
Winds: from the SSE (150 degrees) at 5 MPH (4 knots; 2.1 m/s)
Visibility: 6 or more miles (10+ km)
Ceiling: at least 12,000 feet AGL
Clouds: scattered clouds at 33000 feet AGL
Weather: no significant weather observed at this time

METAR text: ETHN 170820Z 15003KT 9999 SCT360 06/M00 Q1025 BLU+
Conditions at: ETHN (NIEDERSTETTEN (G, DE) observed 0820 UTC 17 February 2019
Temperature: 6.0°C (43°F)
Dewpoint: 0.0°C (32°F) [RH = 65%]
Pressure (altimeter): 30.27 inches Hg (1025.0 mb)
Winds: from the SSE (150 degrees) at 3 MPH (3 knots; 1.5 m/s)
Visibility: 6 or more miles (10+ km)
Ceiling: at least 12,000 feet AGL
Clouds: scattered clouds at 36000 feet AGL
Weather: no significant weather observed at this time

METAR text: ETHN 170720Z 13006KT 9999 SCT370 04/M01 Q1025 BLU+
Conditions at: ETHN (NIEDERSTETTEN (G, DE) observed 0720 UTC 17 February 2019
Temperature: 4.0°C (39°F)
Dewpoint: -1.0°C (30°F) [RH = 70%]
Pressure (altimeter): 30.27 inches Hg (1025.0 mb)
Winds: from the SE (130 degrees) at 7 MPH (6 knots; 3.1 m/s)
Visibility: 6 or more miles (10+ km)
Ceiling: at least 12,000 feet AGL
Clouds: scattered clouds at 37000 feet AGL
Weather: no significant weather observed at this time

METAR text: ETHN 170620Z 14004KT 9999 SCT370 03/M01 Q1025 BLU+
Conditions at: ETHN (NIEDERSTETTEN (G, DE) observed 0620 UTC 17 February 2019
Temperature: 3.0°C (37°F)
Dewpoint: -1.0°C (30°F) [RH = 75%]
Pressure (altimeter): 30.27 inches Hg (1025.0 mb)
Winds: from the SE (140 degrees) at 5 MPH (4 knots; 2.1 m/s)
Visibility: 6 or more miles (10+ km)
Ceiling: at least 12,000 feet AGL
Clouds: scattered clouds at 37000 feet AGL
Weather: no significant weather observed at this time

METAR text: ETHN 170520Z 13004KT 9999 FEW370 01/M01 Q1025 BLU+
Conditions at: ETHN (NIEDERSTETTEN (G, DE) observed 0520 UTC 17 February 2019
Temperature: 1.0°C (34°F)
Dewpoint: -1.0°C (30°F) [RH = 86%]
Pressure (altimeter): 30.27 inches Hg (1025.0 mb)
Winds: from the SE (130 degrees) at 5 MPH (4 knots; 2.1 m/s)
Visibility: 6 or more miles (10+ km)
Ceiling: at least 12,000 feet AGL
Clouds: few clouds at 37000 feet AGL
Weather: no significant weather observed at this time

METAR text: ETHN 170420Z 14002KT 9999 SCT380 02/M01 Q1025 BLU+
Conditions at: ETHN (NIEDERSTETTEN (G, DE) observed 0420 UTC 17 February 2019
Temperature: 2.0°C (36°F)
Dewpoint: -1.0°C (30°F) [RH = 80%]
Pressure (altimeter): 30.27 inches Hg (1025.0 mb)
Winds: from the SE (140 degrees) at 2 MPH (2 knots; 1.0 m/s)
Visibility: 6 or more miles (10+ km)
Ceiling: at least 12,000 feet AGL
Clouds: scattered clouds at 38000 feet AGL
Weather: no significant weather observed at this time

METAR text: ETHN 170320Z 14004KT 9999 FEW380 05/M00 Q1025 BLU+
Conditions at: ETHN (NIEDERSTETTEN (G, DE) observed 0320 UTC 17 February 2019
Temperature: 5.0°C (41°F)
Dewpoint: 0.0°C (32°F) [RH = 70%]
Pressure (altimeter): 30.27 inches Hg (1025.0 mb)
Winds: from the SE (140 degrees) at 5 MPH (4 knots; 2.1 m/s)
Visibility: 6 or more miles (10+ km)
Ceiling: at least 12,000 feet AGL
Clouds: few clouds at 38000 feet AGL
Weather: no significant weather observed at this time

METAR text: ETHN 170220Z 14006KT 9999 05/M00 Q1025 BLU+
Conditions at: ETHN (NIEDERSTETTEN (G, DE) observed 0220 UTC 17 February 2019
Temperature: 5.0°C (41°F)
Dewpoint: 0.0°C (32°F) [RH = 70%]
Pressure (altimeter): 30.27 inches Hg (1025.0 mb)
Winds: from the SE (140 degrees) at 7 MPH (6 knots; 3.1 m/s)
Visibility: 6 or more miles (10+ km)
Ceiling: unknown
Clouds: missing
Weather: no significant weather observed at this time

METAR text: ETHN 170120Z 15004KT 9999 FEW380 05/M00 Q1026 BLU+
Conditions at: ETHN (NIEDERSTETTEN (G, DE) observed 0120 UTC 17 February 2019
Temperature: 5.0°C (41°F)
Dewpoint: 0.0°C (32°F) [RH = 70%]
Pressure (altimeter): 30.30 inches Hg (1026.0 mb)
Winds: from the SSE (150 degrees) at 5 MPH (4 knots; 2.1 m/s)
Visibility: 6 or more miles (10+ km)
Ceiling: at least 12,000 feet AGL
Clouds: few clouds at 38000 feet AGL
Weather: no significant weather observed at this time

METAR text: ETHN 170020Z 14006KT 9999 FEW380 06/00 Q1026 BLU+
Conditions at: ETHN (NIEDERSTETTEN (G, DE) observed 0020 UTC 17 February 2019
Temperature: 6.0°C (43°F)
Dewpoint: 0.0°C (32°F) [RH = 65%]
Pressure (altimeter): 30.30 inches Hg (1026.0 mb)
Winds: from the SE (140 degrees) at 7 MPH (6 knots; 3.1 m/s)
Visibility: 6 or more miles (10+ km)
Ceiling: at least 12,000 feet AGL
Clouds: few clouds at 38000 feet AGL
Weather: no significant weather observed at this time

METAR text: ETHN 162320Z 13005KT 9999 06/00 Q1026 BLU+
Conditions at: ETHN (NIEDERSTETTEN (G, DE) observed 2320 UTC 16 February 2019
Temperature: 6.0°C (43°F)
Dewpoint: 0.0°C (32°F) [RH = 65%]
Pressure (altimeter): 30.30 inches Hg (1026.0 mb)
Winds: from the SE (130 degrees) at 6 MPH (5 knots; 2.6 m/s)
Visibility: 6 or more miles (10+ km)
Ceiling: unknown
Clouds: missing
Weather: no significant weather observed at this time

METAR text: ETHN 162220Z 13006KT 9999 06/01 Q1026 BLU+
Conditions at: ETHN (NIEDERSTETTEN (G, DE) observed 2220 UTC 16 February 2019
Temperature: 6.0°C (43°F)
Dewpoint: 1.0°C (34°F) [RH = 70%]
Pressure (altimeter): 30.30 inches Hg (1026.0 mb)
Winds: from the SE (130 degrees) at 7 MPH (6 knots; 3.1 m/s)
Visibility: 6 or more miles (10+ km)
Ceiling: unknown
Clouds: missing
Weather: no significant weather observed at this time

METAR text: ETHN 162120Z 15002KT 9999 06/01 Q1027 BLU+
Conditions at: ETHN (NIEDERSTETTEN (G, DE) observed 2120 UTC 16 February 2019
Temperature: 6.0°C (43°F)
Dewpoint: 1.0°C (34°F) [RH = 70%]
Pressure (altimeter): 30.32 inches Hg (1027.0 mb)
Winds: from the SSE (150 degrees) at 2 MPH (2 knots; 1.0 m/s)
Visibility: 6 or more miles (10+ km)
Ceiling: unknown
Clouds: missing
Weather: no significant weather observed at this time

METAR text: ETHN 162020Z 14005KT 9999 FEW300 06/M00 Q1027 BLU+
Conditions at: ETHN (NIEDERSTETTEN (G, DE) observed 2020 UTC 16 February 2019
Temperature: 6.0°C (43°F)
Dewpoint: 0.0°C (32°F) [RH = 65%]
Pressure (altimeter): 30.32 inches Hg (1027.0 mb)
Winds: from the SE (140 degrees) at 6 MPH (5 knots; 2.6 m/s)
Visibility: 6 or more miles (10+ km)
Ceiling: at least 12,000 feet AGL
Clouds: few clouds at 30000 feet AGL
Weather: no significant weather observed at this time

Forecast for: ETHN (NIEDERSTETTEN (G, DE)
Text: TAF ETHN 180500Z 1806/1815 19005KT 9999 NSW SKC
Forecast period: 0600 to 1500 UTC 18 February 2019
Forecast type: FROM: standard forecast or significant change
Winds: from the S (190 degrees) at 6 MPH (5 knots; 2.6 m/s)
Visibility: 6 or more miles 10+ km)
Clouds: clear skies
Weather: NSW  (no significant weather)